Time;durP1;ratioP1;P1;durP2;ratioP2;P2;SDS_P1;SDS_P2;PMS_P1;PMS_P2;Temp;Humidity;BMP_temperature;BMP_pressure;BME280_temperature;BME280_humidity;BME280_pressure;Samples;Min_cycle;Max_cycle;Signal;HPM_P1;HPM_P2
2023/04/29 00:01:35;;;;;;;49.70;32.17;;;;;;;;;;5035908;28;20037;-63
2023/04/29 00:04:01;;;;;;;52.42;33.63;;;;;;;;;;5053726;28;20109;-63
2023/04/29 00:06:28;;;;;;;55.63;36.30;;;;;;;;;;5053345;28;20073;-61
2023/04/29 00:08:54;;;;;;;58.58;36.65;;;;;;;;;;5053362;28;20051;-61
2023/04/29 00:11:20;;;;;;;55.40;34.80;;;;;;;;;;5052925;28;20104;-63
2023/04/29 00:13:46;;;;;;;66.80;39.10;;;;;;;;;;5053231;28;20025;-64
2023/04/29 00:16:12;;;;;;;65.30;39.67;;;;;;;;;;5053248;28;20078;-60
2023/04/29 00:18:38;;;;;;;65.50;39.10;;;;;;;;;;5052806;28;20155;-60
2023/04/29 00:21:04;;;;;;;70.00;40.67;;;;;;;;;;5053216;28;20145;-59
2023/04/29 00:23:31;;;;;;;59.13;35.05;;;;;;;;;;5053037;28;20029;-60
2023/04/29 00:25:57;;;;;;;53.58;30.95;;;;;;;;;;5053410;28;20562;-62
2023/04/29 00:28:24;;;;;;;55.90;33.03;;;;;;;;;;5053391;28;20093;-62
2023/04/29 00:30:50;;;;;;;53.47;32.80;;;;;;;;;;5053243;28;20028;-62
2023/04/29 00:33:16;;;;;;;59.65;35.35;;;;;;;;;;5034502;28;20025;-64
2023/04/29 00:35:42;;;;;;;65.47;36.72;;;;;;;;;;5052607;28;20029;-60
2023/04/29 00:38:08;;;;;;;58.38;36.70;;;;;;;;;;5035057;28;20025;-62
2023/04/29 00:40:34;;;;;;;60.20;34.95;;;;;;;;;;5052417;28;20031;-61
2023/04/29 00:43:00;;;;;;;63.03;35.72;;;;;;;;;;5052598;28;20082;-60
2023/04/29 00:45:26;;;;;;;62.22;36.28;;;;;;;;;;5034297;28;20549;-62
2023/04/29 00:47:52;;;;;;;60.28;36.97;;;;;;;;;;5052237;28;20109;-62
2023/04/29 00:50:18;;;;;;;54.25;32.30;;;;;;;;;;5034878;28;20032;-62
2023/04/29 00:52:45;;;;;;;62.50;35.13;;;;;;;;;;5052095;28;20133;-61
2023/04/29 00:55:14;;;;;;;57.22;33.63;;;;;;;;;;5034371;28;20021;-60
2023/04/29 00:57:41;;;;;;;64.13;37.00;;;;;;;;;;5052322;28;20508;-62
2023/04/29 01:00:08;;;;;;;65.80;36.05;;;;;;;;;;5052155;28;20508;-61
2023/04/29 01:02:35;;;;;;;61.28;35.42;;;;;;;;;;5052067;28;20025;-62
2023/04/29 01:05:01;;;;;;;60.22;33.65;;;;;;;;;;5033976;28;20092;-64
2023/04/29 01:07:42;;;;;;;59.88;31.40;;;;;;;;;;5052063;28;20110;-62
2023/04/29 01:10:16;;;;;;;57.10;31.45;;;;;;;;;;5051846;28;20037;-59
2023/04/29 01:12:46;;;;;;;54.42;30.98;;;;;;;;;;5052221;28;20079;-61
2023/04/29 01:15:19;;;;;;;60.75;33.45;;;;;;;;;;5051399;28;20021;-62
2023/04/29 01:17:51;;;;;;;61.30;32.40;;;;;;;;;;5034737;28;20021;-63
2023/04/29 01:20:18;;;;;;;57.03;30.67;;;;;;;;;;5052137;28;20028;-62
2023/04/29 01:22:44;;;;;;;53.75;32.40;;;;;;;;;;5051399;28;20100;-60
2023/04/29 01:25:11;;;;;;;58.58;34.47;;;;;;;;;;5051590;28;20059;-59
2023/04/29 01:27:43;;;;;;;55.40;31.83;;;;;;;;;;5051318;28;20515;-63
2023/04/29 01:30:15;;;;;;;61.40;33.15;;;;;;;;;;5051554;28;20029;-61
2023/04/29 01:32:57;;;;;;;58.13;34.42;;;;;;;;;;5051313;28;20021;-61
2023/04/29 01:35:26;;;;;;;48.17;27.48;;;;;;;;;;5051731;28;20127;-60
2023/04/29 01:37:56;;;;;;;50.60;30.13;;;;;;;;;;5052074;28;20534;-62
2023/04/29 01:40:26;;;;;;;57.15;32.17;;;;;;;;;;5051508;28;20048;-63
2023/04/29 01:43:03;;;;;;;62.83;32.78;;;;;;;;;;5051702;28;20028;-61
2023/04/29 01:45:29;;;;;;;58.55;33.47;;;;;;;;;;5034128;28;20021;-62
2023/04/29 01:47:57;;;;;;;63.70;33.42;;;;;;;;;;5055220;28;20051;-62
2023/04/29 01:50:23;;;;;;;58.90;33.57;;;;;;;;;;5055108;28;20070;-63
2023/04/29 01:52:49;;;;;;;55.42;32.42;;;;;;;;;;5055819;28;20469;-63
2023/04/29 01:55:15;;;;;;;52.20;31.58;;;;;;;;;;5055072;28;20123;-61
2023/04/29 01:57:41;;;;;;;51.75;31.83;;;;;;;;;;5054974;28;20017;-63
2023/04/29 02:00:07;;;;;;;52.70;31.10;;;;;;;;;;5055822;28;20127;-62
2023/04/29 02:02:34;;;;;;;55.60;32.67;;;;;;;;;;5055400;28;20112;-60
2023/04/29 02:05:00;;;;;;;50.05;29.65;;;;;;;;;;5054856;28;20021;-63
2023/04/29 02:07:26;;;;;;;53.13;30.55;;;;;;;;;;5055568;28;20025;-63
2023/04/29 02:09:52;;;;;;;50.72;29.60;;;;;;;;;;5037154;28;20018;-63
2023/04/29 02:12:18;;;;;;;44.90;27.05;;;;;;;;;;5036896;28;20028;-63
2023/04/29 02:14:46;;;;;;;44.60;27.55;;;;;;;;;;5054544;28;20032;-63
2023/04/29 02:17:12;;;;;;;47.35;27.98;;;;;;;;;;5054804;28;20107;-63
2023/04/29 02:19:38;;;;;;;45.63;26.15;;;;;;;;;;5054911;28;20072;-60
2023/04/29 02:22:04;;;;;;;41.22;23.85;;;;;;;;;;5054689;28;20040;-61
2023/04/29 02:24:31;;;;;;;39.58;24.92;;;;;;;;;;5054702;28;20063;-63
2023/04/29 02:26:57;;;;;;;40.67;25.80;;;;;;;;;;5055116;28;20033;-63
2023/04/29 02:29:25;;;;;;;42.85;26.25;;;;;;;;;;5054592;28;20477;-62
2023/04/29 02:31:51;;;;;;;38.38;24.02;;;;;;;;;;5054970;28;20440;-62
2023/04/29 02:34:17;;;;;;;45.42;28.65;;;;;;;;;;5054308;28;20043;-62
2023/04/29 02:36:43;;;;;;;43.97;26.08;;;;;;;;;;5054291;28;20123;-62
2023/04/29 02:39:09;;;;;;;43.38;24.13;;;;;;;;;;5054167;28;20025;-64
2023/04/29 02:41:35;;;;;;;46.13;26.80;;;;;;;;;;5054174;28;20463;-61
2023/04/29 02:44:01;;;;;;;49.20;29.98;;;;;;;;;;5054039;28;20084;-62
2023/04/29 02:46:27;;;;;;;47.95;28.92;;;;;;;;;;5036529;28;20138;-64
2023/04/29 02:48:53;;;;;;;48.33;30.05;;;;;;;;;;5036720;28;20029;-64
2023/04/29 02:51:19;;;;;;;47.92;29.45;;;;;;;;;;5036617;28;20338;-63
2023/04/29 02:53:45;;;;;;;55.83;31.92;;;;;;;;;;5054313;28;20049;-59
2023/04/29 02:56:11;;;;;;;50.53;30.58;;;;;;;;;;5035755;28;20021;-61
2023/04/29 02:58:37;;;;;;;52.17;32.20;;;;;;;;;;5035860;28;20048;-63
2023/04/29 03:01:03;;;;;;;54.03;32.55;;;;;;;;;;5054782;28;20025;-63
2023/04/29 03:03:29;;;;;;;54.88;33.95;;;;;;;;;;5052776;28;20033;-64
2023/04/29 03:05:55;;;;;;;54.67;32.75;;;;;;;;;;5035573;28;20017;-64
2023/04/29 03:08:22;;;;;;;50.63;32.28;;;;;;;;;;5053640;28;20481;-65
2023/04/29 03:10:48;;;;;;;54.55;33.35;;;;;;;;;;5053742;28;20097;-65
2023/04/29 03:13:13;;;;;;;55.40;35.38;;;;;;;;;;5053716;28;20045;-61
2023/04/29 03:15:39;;;;;;;51.10;31.40;;;;;;;;;;5053172;28;20049;-61
2023/04/29 03:18:05;;;;;;;54.28;33.10;;;;;;;;;;5035472;28;20025;-64
2023/04/29 03:20:31;;;;;;;50.60;30.90;;;;;;;;;;5053505;28;20075;-61
2023/04/29 03:22:58;;;;;;;53.00;33.50;;;;;;;;;;5053157;28;20029;-62
2023/04/29 03:25:24;;;;;;;51.47;32.42;;;;;;;;;;5053092;28;20061;-64
2023/04/29 03:27:50;;;;;;;50.47;30.83;;;;;;;;;;5035311;28;20388;-63
2023/04/29 03:30:16;;;;;;;57.05;34.17;;;;;;;;;;5035597;28;20021;-64
2023/04/29 03:32:42;;;;;;;52.00;33.72;;;;;;;;;;5053173;28;20021;-62
2023/04/29 03:35:10;;;;;;;56.10;36.78;;;;;;;;;;5053214;28;20073;-61
2023/04/29 03:37:36;;;;;;;59.00;36.03;;;;;;;;;;5053233;28;20052;-61
2023/04/29 03:40:03;;;;;;;54.30;34.08;;;;;;;;;;5053799;28;20028;-63
2023/04/29 03:42:29;;;;;;;53.40;34.10;;;;;;;;;;5035561;28;20515;-63
2023/04/29 03:44:55;;;;;;;52.85;32.28;;;;;;;;;;5034786;28;20032;-64
2023/04/29 03:47:21;;;;;;;46.00;28.45;;;;;;;;;;5053132;28;20031;-64
2023/04/29 03:49:47;;;;;;;48.65;32.30;;;;;;;;;;5053671;28;20108;-62
2023/04/29 03:52:13;;;;;;;47.28;29.48;;;;;;;;;;5054074;28;20055;-57
2023/04/29 03:54:39;;;;;;;52.85;31.45;;;;;;;;;;5054629;28;20024;-61
2023/04/29 03:57:05;;;;;;;51.58;32.35;;;;;;;;;;5054590;28;20028;-59
2023/04/29 03:59:31;;;;;;;45.72;30.15;;;;;;;;;;5035837;28;20070;-62
2023/04/29 04:01:57;;;;;;;49.92;30.55;;;;;;;;;;5053929;28;20040;-64
2023/04/29 04:04:23;;;;;;;50.25;32.25;;;;;;;;;;5053428;28;20052;-63
2023/04/29 04:06:50;;;;;;;46.47;30.63;;;;;;;;;;5053555;28;20028;-61
2023/04/29 04:09:17;;;;;;;49.58;31.88;;;;;;;;;;5035107;28;20047;-65
2023/04/29 04:11:43;;;;;;;44.97;30.38;;;;;;;;;;5053602;28;20571;-64
2023/04/29 04:14:09;;;;;;;45.67;29.95;;;;;;;;;;5053016;28;20052;-61
2023/04/29 04:16:35;;;;;;;46.40;30.73;;;;;;;;;;5053398;28;20116;-64
2023/04/29 04:19:01;;;;;;;47.22;30.92;;;;;;;;;;5053112;28;20037;-64
2023/04/29 04:21:28;;;;;;;46.10;30.38;;;;;;;;;;5053776;28;20381;-64
2023/04/29 04:23:55;;;;;;;45.65;29.63;;;;;;;;;;5053398;28;20039;-59
2023/04/29 04:26:21;;;;;;;43.78;29.77;;;;;;;;;;5053025;28;20075;-63
2023/04/29 04:28:47;;;;;;;42.58;27.60;;;;;;;;;;5053227;28;20538;-64
2023/04/29 04:31:13;;;;;;;46.22;32.03;;;;;;;;;;5052651;28;20048;-61
2023/04/29 04:33:40;;;;;;;46.88;29.83;;;;;;;;;;5053043;28;20068;-61
2023/04/29 04:36:06;;;;;;;46.03;30.70;;;;;;;;;;5052950;28;20377;-62
2023/04/29 04:38:33;;;;;;;48.05;30.70;;;;;;;;;;5035270;28;20033;-64
2023/04/29 04:40:59;;;;;;;44.63;29.35;;;;;;;;;;5052947;28;20029;-61
2023/04/29 04:43:25;;;;;;;45.95;30.50;;;;;;;;;;5052740;28;20032;-58
2023/04/29 04:45:52;;;;;;;45.60;31.13;;;;;;;;;;5034469;28;20497;-61
2023/04/29 04:48:18;;;;;;;45.63;31.27;;;;;;;;;;5052890;28;20392;-63
2023/04/29 04:50:44;;;;;;;46.08;30.67;;;;;;;;;;5053386;28;20186;-62
2023/04/29 04:53:10;;;;;;;46.65;31.40;;;;;;;;;;5035086;28;20075;-63
2023/04/29 04:55:36;;;;;;;43.47;28.40;;;;;;;;;;5034922;28;20029;-63
2023/04/29 04:58:02;;;;;;;46.63;30.98;;;;;;;;;;5052936;28;20032;-58
2023/04/29 05:00:28;;;;;;;47.05;29.80;;;;;;;;;;5053073;28;20100;-61
2023/04/29 05:02:54;;;;;;;46.20;29.90;;;;;;;;;;5053017;28;20083;-60
2023/04/29 05:05:20;;;;;;;44.53;30.77;;;;;;;;;;5052229;28;20488;-62
2023/04/29 05:07:46;;;;;;;46.42;30.55;;;;;;;;;;5052652;28;20036;-62
2023/04/29 05:10:12;;;;;;;47.40;31.52;;;;;;;;;;5051903;28;20024;-60
2023/04/29 05:12:38;;;;;;;50.20;31.02;;;;;;;;;;5052549;28;20530;-62
2023/04/29 05:15:04;;;;;;;45.13;31.42;;;;;;;;;;5052303;28;20070;-62
2023/04/29 05:17:30;;;;;;;46.88;30.42;;;;;;;;;;5052789;28;20112;-62
2023/04/29 05:19:56;;;;;;;45.75;29.40;;;;;;;;;;5053852;28;20122;-61
2023/04/29 05:22:22;;;;;;;47.22;31.73;;;;;;;;;;5056746;28;20132;-60
2023/04/29 05:24:48;;;;;;;52.67;30.90;;;;;;;;;;5068905;22;20049;-54
2023/04/29 05:27:14;;;;;;;48.05;29.90;;;;;;;;;;5035374;28;20101;-53
2023/04/29 05:29:40;;;;;;;44.75;28.52;;;;;;;;;;5035447;28;20029;-54
2023/04/29 05:32:06;;;;;;;44.83;31.30;;;;;;;;;;5035335;28;20035;-53
2023/04/29 05:34:32;;;;;;;43.95;30.17;;;;;;;;;;5034980;28;20040;-51
2023/04/29 05:36:58;;;;;;;45.85;30.20;;;;;;;;;;5035348;28;20022;-55
2023/04/29 05:39:25;;;;;;;45.47;29.10;;;;;;;;;;5035131;28;20435;-52
2023/04/29 05:41:51;;;;;;;48.25;30.08;;;;;;;;;;5035210;28;20025;-52
2023/04/29 05:44:17;;;;;;;47.25;28.75;;;;;;;;;;5035039;28;20060;-53
2023/04/29 05:46:43;;;;;;;49.20;29.90;;;;;;;;;;5017226;28;20033;-51
2023/04/29 05:49:09;;;;;;;47.88;31.40;;;;;;;;;;5017463;28;20029;-51
2023/04/29 05:51:35;;;;;;;49.97;29.80;;;;;;;;;;5034811;28;20025;-51
2023/04/29 05:54:01;;;;;;;45.80;28.50;;;;;;;;;;5035666;28;20022;-48
2023/04/29 05:56:27;;;;;;;46.78;29.85;;;;;;;;;;5017599;28;20051;-51
2023/04/29 05:58:53;;;;;;;46.45;30.08;;;;;;;;;;5034685;28;20025;-54
2023/04/29 06:01:20;;;;;;;49.58;31.88;;;;;;;;;;5031540;28;20021;-51
2023/04/29 06:03:46;;;;;;;47.67;31.33;;;;;;;;;;5034593;28;20028;-52
2023/04/29 06:06:12;;;;;;;50.58;32.60;;;;;;;;;;5016840;28;20025;-51
2023/04/29 06:08:38;;;;;;;49.83;32.38;;;;;;;;;;5016899;28;20507;-54
2023/04/29 06:11:04;;;;;;;46.65;29.58;;;;;;;;;;5034485;28;20029;-54
2023/04/29 06:13:32;;;;;;;54.00;33.47;;;;;;;;;;5016763;28;20026;-51
2023/04/29 06:15:58;;;;;;;50.50;30.05;;;;;;;;;;5034174;28;20094;-53
2023/04/29 06:18:24;;;;;;;51.67;31.88;;;;;;;;;;5034340;28;20385;-55
2023/04/29 06:20:50;;;;;;;53.90;35.92;;;;;;;;;;5034538;28;20117;-55
2023/04/29 06:23:16;;;;;;;52.92;31.90;;;;;;;;;;5034300;28;20073;-56
2023/04/29 06:25:42;;;;;;;53.30;32.38;;;;;;;;;;5033710;28;20026;-53
2023/04/29 06:28:08;;;;;;;56.85;34.42;;;;;;;;;;5034272;28;20104;-56
2023/04/29 06:30:34;;;;;;;57.58;34.83;;;;;;;;;;5034089;28;20121;-56
2023/04/29 06:33:00;;;;;;;55.78;35.38;;;;;;;;;;5015863;28;20041;-57
2023/04/29 06:35:26;;;;;;;54.35;34.95;;;;;;;;;;5033546;28;20524;-50
2023/04/29 06:37:52;;;;;;;60.58;36.20;;;;;;;;;;5034047;28;20025;-55
2023/04/29 06:40:18;;;;;;;56.45;34.67;;;;;;;;;;5033971;28;20033;-54
2023/04/29 06:42:44;;;;;;;53.85;35.22;;;;;;;;;;5033820;28;20073;-50
2023/04/29 06:45:10;;;;;;;56.38;33.80;;;;;;;;;;5016111;28;20022;-51
2023/04/29 06:47:36;;;;;;;60.50;37.65;;;;;;;;;;5033958;28;20082;-52
2023/04/29 06:50:02;;;;;;;53.88;36.10;;;;;;;;;;5033901;28;20112;-47
2023/04/29 06:52:28;;;;;;;54.97;35.75;;;;;;;;;;5033827;28;20048;-52
2023/04/29 06:54:54;;;;;;;58.20;38.13;;;;;;;;;;5033541;28;20025;-52
2023/04/29 06:57:20;;;;;;;58.70;36.72;;;;;;;;;;5033709;28;20112;-51
2023/04/29 06:59:47;;;;;;;57.05;36.35;;;;;;;;;;5033334;28;20481;-54
2023/04/29 07:02:13;;;;;;;54.40;33.72;;;;;;;;;;5033577;28;20044;-52
2023/04/29 07:04:39;;;;;;;58.78;36.83;;;;;;;;;;5033380;28;20029;-54
2023/04/29 07:07:05;;;;;;;52.53;35.65;;;;;;;;;;5033503;28;20057;-51
2023/04/29 07:09:31;;;;;;;50.38;34.17;;;;;;;;;;5033212;28;20025;-52
2023/04/29 07:11:57;;;;;;;53.22;35.78;;;;;;;;;;5033505;28;20099;-53
2023/04/29 07:14:23;;;;;;;51.95;35.45;;;;;;;;;;5032870;28;20025;-49
2023/04/29 07:16:53;;;;;;;51.90;35.30;;;;;;;;;;5033538;28;20056;-56
2023/04/29 07:19:19;;;;;;;51.47;33.90;;;;;;;;;;5033431;28;20092;-52
2023/04/29 07:21:45;;;;;;;49.05;34.55;;;;;;;;;;5033165;28;20033;-53
2023/04/29 07:24:11;;;;;;;55.50;36.05;;;;;;;;;;5033011;28;20109;-51
2023/04/29 07:26:37;;;;;;;53.88;34.75;;;;;;;;;;5015208;28;20041;-54
2023/04/29 07:29:03;;;;;;;55.33;34.97;;;;;;;;;;5015310;28;20033;-54
2023/04/29 07:31:29;;;;;;;47.08;33.85;;;;;;;;;;5032958;28;20032;-51
2023/04/29 07:33:55;;;;;;;57.75;35.22;;;;;;;;;;5032834;28;20018;-53
2023/04/29 07:36:22;;;;;;;53.15;33.25;;;;;;;;;;5015125;28;20029;-54
2023/04/29 07:38:48;;;;;;;49.47;34.53;;;;;;;;;;5032943;28;20105;-54
2023/04/29 07:41:14;;;;;;;48.47;33.60;;;;;;;;;;5032668;28;20067;-54
2023/04/29 07:43:40;;;;;;;51.92;34.72;;;;;;;;;;5031736;28;20040;-54
2023/04/29 07:46:06;;;;;;;48.28;33.20;;;;;;;;;;5032446;28;20100;-55
2023/04/29 07:48:37;;;;;;;49.55;33.50;;;;;;;;;;5032524;28;20156;-58
2023/04/29 07:51:03;;;;;;;49.95;33.17;;;;;;;;;;5032597;28;20036;-62
2023/04/29 07:53:29;;;;;;;48.83;32.15;;;;;;;;;;5032221;28;20398;-59
2023/04/29 07:55:55;;;;;;;44.50;31.92;;;;;;;;;;5032139;28;20025;-58
2023/04/29 07:58:21;;;;;;;48.22;31.02;;;;;;;;;;5032550;28;20033;-58
2023/04/29 08:00:47;;;;;;;45.67;31.17;;;;;;;;;;5032320;28;20528;-57
2023/04/29 08:03:13;;;;;;;41.65;30.60;;;;;;;;;;5032661;28;20033;-60
2023/04/29 08:05:47;;;;;;;46.10;31.55;;;;;;;;;;5089347;27;19913;-62
2023/04/29 08:08:13;;;;;;;42.22;31.50;;;;;;;;;;5089124;28;20020;-62
2023/04/29 08:10:39;;;;;;;42.17;30.80;;;;;;;;;;5089104;28;20028;-61
2023/04/29 08:13:05;;;;;;;42.65;31.10;;;;;;;;;;5089288;28;20422;-63
2023/04/29 08:15:32;;;;;;;40.45;28.20;;;;;;;;;;5088534;28;20028;-61
2023/04/29 08:17:58;;;;;;;43.22;31.02;;;;;;;;;;5089130;28;20039;-63
2023/04/29 08:20:24;;;;;;;39.42;28.77;;;;;;;;;;5088876;28;20031;-62
2023/04/29 08:22:50;;;;;;;46.30;28.30;;;;;;;;;;5088655;28;20028;-63
2023/04/29 08:25:16;;;;;;;40.85;30.00;;;;;;;;;;5086997;28;20038;-55
2023/04/29 08:27:44;;;;;;;41.03;28.00;;;;;;;;;;5088814;28;20020;-56
2023/04/29 08:30:10;;;;;;;36.50;27.45;;;;;;;;;;5088608;28;20077;-52
2023/04/29 08:32:36;;;;;;;39.33;28.83;;;;;;;;;;5088712;28;20028;-55
2023/04/29 08:35:02;;;;;;;40.63;27.30;;;;;;;;;;5088100;28;20047;-56
2023/04/29 08:37:28;;;;;;;35.85;27.27;;;;;;;;;;5087415;28;20403;-57
2023/04/29 08:39:54;;;;;;;36.13;27.25;;;;;;;;;;5088545;28;20025;-54
2023/04/29 08:42:29;;;;;;;38.15;26.35;;;;;;;;;;5088427;28;20391;-54
2023/04/29 08:44:55;;;;;;;37.47;27.23;;;;;;;;;;5086724;28;20032;-53
2023/04/29 08:47:22;;;;;;;36.88;27.25;;;;;;;;;;5088591;28;20349;-55
2023/04/29 08:49:48;;;;;;;38.78;28.50;;;;;;;;;;5088361;28;20103;-57
2023/04/29 08:52:14;;;;;;;37.92;26.92;;;;;;;;;;5088170;28;20055;-54
2023/04/29 08:54:40;;;;;;;38.92;25.63;;;;;;;;;;5087963;28;20043;-58
2023/04/29 08:57:06;;;;;;;33.30;24.48;;;;;;;;;;5088099;28;20103;-56
2023/04/29 08:59:32;;;;;;;34.35;26.35;;;;;;;;;;5088044;28;20130;-56
2023/04/29 09:01:59;;;;;;;35.10;26.02;;;;;;;;;;5086797;28;20472;-55
2023/04/29 09:04:28;;;;;;;33.33;25.83;;;;;;;;;;5097207;28;20031;-57
2023/04/29 09:06:56;;;;;;;35.08;24.05;;;;;;;;;;5108191;28;20019;-55
2023/04/29 09:09:22;;;;;;;34.45;23.92;;;;;;;;;;5108340;28;20020;-58
2023/04/29 09:11:48;;;;;;;38.33;23.50;;;;;;;;;;5108513;28;20034;-54
2023/04/29 09:14:14;;;;;;;33.38;23.30;;;;;;;;;;5108076;28;20153;-58
2023/04/29 09:16:40;;;;;;;35.72;23.45;;;;;;;;;;5095853;28;20514;-53
2023/04/29 09:19:06;;;;;;;29.63;22.15;;;;;;;;;;5094092;28;20102;-56
2023/04/29 09:21:32;;;;;;;30.48;23.10;;;;;;;;;;5094208;28;20108;-56
2023/04/29 09:23:59;;;;;;;32.47;22.33;;;;;;;;;;5093813;28;20024;-54
2023/04/29 09:26:25;;;;;;;29.58;21.10;;;;;;;;;;5093916;28;20020;-53
2023/04/29 09:29:08;;;;;;;31.75;23.02;;;;;;;;;;5094070;28;20024;-57
2023/04/29 09:31:34;;;;;;;31.83;21.80;;;;;;;;;;5093771;28;20032;-57
2023/04/29 09:34:00;;;;;;;31.73;22.27;;;;;;;;;;5093601;28;20031;-54
2023/04/29 09:36:46;;;;;;;33.53;22.17;;;;;;;;;;5093595;28;20028;-57
2023/04/29 09:39:19;;;;;;;32.13;22.58;;;;;;;;;;5091432;28;20441;-56
2023/04/29 09:41:54;;;;;;;34.72;22.00;;;;;;;;;;5093746;28;20028;-53
2023/04/29 09:44:21;;;;;;;30.70;22.48;;;;;;;;;;5093305;28;20028;-56
2023/04/29 09:47:01;;;;;;;30.58;22.73;;;;;;;;;;5093592;28;20020;-54
2023/04/29 09:49:31;;;;;;;31.02;21.08;;;;;;;;;;5093771;28;20359;-52
2023/04/29 09:51:58;;;;;;;29.85;22.27;;;;;;;;;;5093654;28;20591;-56
2023/04/29 09:54:25;;;;;;;32.25;23.90;;;;;;;;;;5093139;28;20038;-56
2023/04/29 09:56:52;;;;;;;30.92;22.25;;;;;;;;;;5091235;28;20143;-55
2023/04/29 09:59:18;;;;;;;31.42;21.42;;;;;;;;;;5085592;28;20058;-56
2023/04/29 10:01:47;;;;;;;30.70;22.65;;;;;;;;;;5091383;28;20483;-53
2023/04/29 10:04:15;;;;;;;31.40;22.33;;;;;;;;;;5092849;28;20476;-55
2023/04/29 10:06:41;;;;;;;30.23;21.63;;;;;;;;;;5093268;28;20050;-58
2023/04/29 10:09:08;;;;;;;32.63;22.10;;;;;;;;;;5093103;28;20412;-57
2023/04/29 10:11:35;;;;;;;28.90;20.80;;;;;;;;;;5093370;28;20099;-58
2023/04/29 10:14:02;;;;;;;26.15;20.02;;;;;;;;;;5093133;28;20028;-56
2023/04/29 10:16:29;;;;;;;30.50;22.30;;;;;;;;;;4733962;28;9999931;-55
2023/04/29 10:18:56;;;;;;;30.63;21.33;;;;;;;;;;5090867;28;20027;-52
2023/04/29 10:21:30;;;;;;;27.25;20.30;;;;;;;;;;5090052;28;20139;-53
2023/04/29 10:23:56;;;;;;;26.08;19.10;;;;;;;;;;5082212;28;20020;-56
2023/04/29 10:26:25;;;;;;;26.48;19.38;;;;;;;;;;5089662;28;20027;-55
2023/04/29 10:28:51;;;;;;;31.55;19.30;;;;;;;;;;5087101;28;20091;-55
2023/04/29 10:31:17;;;;;;;28.65;20.90;;;;;;;;;;5089654;28;20078;-57
2023/04/29 10:33:44;;;;;;;27.95;18.83;;;;;;;;;;5083008;28;20024;-51
2023/04/29 10:36:11;;;;;;;28.23;19.73;;;;;;;;;;5089033;28;20016;-53
2023/04/29 10:38:42;;;;;;;25.50;19.80;;;;;;;;;;5089774;28;20028;-57
2023/04/29 10:41:10;;;;;;;28.33;19.67;;;;;;;;;;5089803;28;20086;-58
2023/04/29 10:43:36;;;;;;;24.95;18.95;;;;;;;;;;5090326;28;20499;-54
2023/04/29 10:46:21;;;;;;;26.75;20.33;;;;;;;;;;5089268;28;20106;-56
2023/04/29 10:48:48;;;;;;;24.67;17.95;;;;;;;;;;5089432;28;20024;-59
2023/04/29 10:51:28;;;;;;;24.15;18.73;;;;;;;;;;5086526;28;20199;-56
2023/04/29 10:54:00;;;;;;;24.77;18.88;;;;;;;;;;5081052;28;20107;-56
2023/04/29 10:56:55;;;;;;;24.13;18.63;;;;;;;;;;5088971;28;20031;-56
2023/04/29 10:59:22;;;;;;;27.35;19.67;;;;;;;;;;5076263;28;20535;-55
2023/04/29 11:01:52;;;;;;;24.92;19.33;;;;;;;;;;5076305;28;20103;-56
2023/04/29 11:04:19;;;;;;;26.00;18.55;;;;;;;;;;5070585;28;20029;-56
2023/04/29 11:06:51;;;;;;;24.33;19.50;;;;;;;;;;5071762;28;20044;-52
2023/04/29 11:09:21;;;;;;;23.15;18.23;;;;;;;;;;5072096;28;20039;-59
2023/04/29 11:11:53;;;;;;;25.02;19.13;;;;;;;;;;5071912;28;20028;-58
2023/04/29 11:14:31;;;;;;;24.48;17.38;;;;;;;;;;5071705;28;20079;-56
2023/04/29 11:17:01;;;;;;;24.92;18.20;;;;;;;;;;5071372;28;20053;-56
2023/04/29 11:19:32;;;;;;;28.20;18.33;;;;;;;;;;5071119;28;20070;-58
2023/04/29 11:22:08;;;;;;;22.50;17.52;;;;;;;;;;5071515;28;20103;-58
2023/04/29 11:27:09;;;;;;;22.83;16.40;;;;;;;;;;5065481;22;20081;-56
2023/04/29 11:29:35;;;;;;;23.88;18.02;;;;;;;;;;5050117;28;20029;-58
2023/04/29 11:32:02;;;;;;;24.77;17.35;;;;;;;;;;5050525;28;20040;-56
2023/04/29 11:34:27;;;;;;;25.67;18.23;;;;;;;;;;5049929;28;20415;-58
2023/04/29 11:36:54;;;;;;;22.63;17.13;;;;;;;;;;5050077;28;20021;-57
2023/04/29 11:39:20;;;;;;;22.67;17.02;;;;;;;;;;5050091;28;20037;-56
2023/04/29 11:41:46;;;;;;;25.48;18.23;;;;;;;;;;5050021;28;20072;-58
2023/04/29 11:44:12;;;;;;;24.65;16.45;;;;;;;;;;5049815;28;20094;-54
2023/04/29 11:46:38;;;;;;;23.88;16.42;;;;;;;;;;5032438;28;20116;-56
2023/04/29 11:49:04;;;;;;;22.17;16.58;;;;;;;;;;5049953;28;20091;-55
2023/04/29 11:51:31;;;;;;;23.45;16.70;;;;;;;;;;5050207;28;20033;-59
2023/04/29 11:53:57;;;;;;;28.58;18.45;;;;;;;;;;5049607;28;20102;-59
2023/04/29 11:56:24;;;;;;;23.65;17.02;;;;;;;;;;5049754;28;20120;-59
2023/04/29 11:58:54;;;;;;;22.10;16.13;;;;;;;;;;5049794;28;20092;-57
2023/04/29 12:01:21;;;;;;;23.50;16.67;;;;;;;;;;5049611;28;20492;-59
2023/04/29 12:03:49;;;;;;;24.58;18.23;;;;;;;;;;5046554;28;20136;-59
2023/04/29 12:06:15;;;;;;;21.50;17.25;;;;;;;;;;5029876;28;20021;-59
2023/04/29 12:08:41;;;;;;;24.23;17.05;;;;;;;;;;5042308;28;20072;-59
2023/04/29 12:11:07;;;;;;;24.60;17.55;;;;;;;;;;5028930;28;20083;-59
2023/04/29 12:13:35;;;;;;;23.05;16.13;;;;;;;;;;5048589;28;20040;-59
2023/04/29 12:16:01;;;;;;;23.03;17.57;;;;;;;;;;5029700;28;20018;-59
2023/04/29 12:18:28;;;;;;;22.27;17.20;;;;;;;;;;5029663;28;20022;-55
2023/04/29 12:20:55;;;;;;;22.93;16.37;;;;;;;;;;4325108;28;10000122;-61
2023/04/29 12:23:22;;;;;;;23.52;17.02;;;;;;;;;;5038602;28;20127;-56
2023/04/29 12:25:58;;;;;;;21.90;17.15;;;;;;;;;;5043631;28;20033;-57
2023/04/29 12:28:25;;;;;;;21.80;16.27;;;;;;;;;;5035135;28;20069;-59
2023/04/29 12:30:55;;;;;;;23.67;17.77;;;;;;;;;;5026698;28;20055;-61
2023/04/29 12:33:22;;;;;;;24.30;16.38;;;;;;;;;;5026964;28;20040;-60
2023/04/29 12:35:51;;;;;;;24.33;17.30;;;;;;;;;;5026579;28;20607;-61
2023/04/29 12:38:28;;;;;;;25.42;17.05;;;;;;;;;;5009860;28;20029;-58
2023/04/29 12:40:55;;;;;;;21.35;15.13;;;;;;;;;;5027196;28;20040;-56
2023/04/29 12:43:31;;;;;;;21.83;15.52;;;;;;;;;;5026694;28;20067;-59
2023/04/29 12:46:01;;;;;;;21.15;16.02;;;;;;;;;;5026614;28;20041;-58
2023/04/29 12:48:31;;;;;;;21.95;15.80;;;;;;;;;;5036423;28;20055;-57
2023/04/29 12:50:58;;;;;;;24.88;16.27;;;;;;;;;;5045095;28;20048;-58
2023/04/29 12:53:25;;;;;;;22.15;16.25;;;;;;;;;;5050419;28;20557;-55
2023/04/29 12:55:51;;;;;;;23.45;16.90;;;;;;;;;;5032087;28;20123;-58
2023/04/29 12:58:17;;;;;;;22.00;16.05;;;;;;;;;;5050721;28;20025;-57
2023/04/29 13:00:43;;;;;;;23.17;17.60;;;;;;;;;;5050185;28;20035;-59
2023/04/29 13:03:09;;;;;;;21.30;16.20;;;;;;;;;;5049848;28;20502;-57
2023/04/29 13:05:35;;;;;;;23.77;16.10;;;;;;;;;;5013819;28;20148;-59
2023/04/29 13:08:01;;;;;;;23.83;15.98;;;;;;;;;;5030175;28;20030;-55
2023/04/29 13:10:27;;;;;;;22.80;16.42;;;;;;;;;;5039926;28;20036;-60
2023/04/29 13:12:53;;;;;;;20.95;15.50;;;;;;;;;;5049197;28;20104;-58
2023/04/29 13:15:20;;;;;;;21.00;15.55;;;;;;;;;;5046338;28;20087;-60
2023/04/29 13:17:46;;;;;;;23.55;17.25;;;;;;;;;;5031347;28;20107;-57
2023/04/29 13:20:14;;;;;;;20.15;15.40;;;;;;;;;;5049318;28;20098;-58
2023/04/29 13:22:40;;;;;;;21.92;15.40;;;;;;;;;;5046871;28;20051;-60
2023/04/29 13:25:07;;;;;;;22.20;15.77;;;;;;;;;;5049297;28;20111;-61
2023/04/29 13:27:33;;;;;;;20.83;14.95;;;;;;;;;;5050062;28;20489;-59
2023/04/29 13:29:59;;;;;;;23.48;16.95;;;;;;;;;;5049943;28;20060;-56
2023/04/29 13:32:25;;;;;;;22.92;16.23;;;;;;;;;;5043209;28;20063;-56
2023/04/29 13:34:51;;;;;;;22.02;16.08;;;;;;;;;;5046541;28;20090;-61
2023/04/29 13:37:17;;;;;;;22.13;16.48;;;;;;;;;;5049822;28;20033;-57
2023/04/29 13:39:43;;;;;;;22.67;16.15;;;;;;;;;;5038666;28;20049;-60
2023/04/29 13:42:09;;;;;;;21.02;15.30;;;;;;;;;;5029437;28;20051;-55
2023/04/29 13:44:35;;;;;;;21.42;15.02;;;;;;;;;;5029207;28;20034;-57
2023/04/29 13:47:03;;;;;;;24.15;15.23;;;;;;;;;;5029178;28;20428;-56
2023/04/29 13:49:29;;;;;;;21.20;15.07;;;;;;;;;;5030260;28;20021;-59
2023/04/29 13:51:55;;;;;;;22.23;15.40;;;;;;;;;;5049093;28;20025;-59
2023/04/29 13:54:21;;;;;;;20.23;15.30;;;;;;;;;;5049855;28;20021;-59
2023/04/29 13:56:47;;;;;;;21.83;16.23;;;;;;;;;;5050285;28;20025;-57
2023/04/29 13:59:13;;;;;;;21.15;15.27;;;;;;;;;;5051039;28;20095;-56
2023/04/29 14:01:39;;;;;;;23.77;15.75;;;;;;;;;;5047334;28;20496;-61
2023/04/29 14:04:05;;;;;;;19.35;14.93;;;;;;;;;;5048400;28;20541;-61
2023/04/29 14:06:32;;;;;;;20.60;15.30;;;;;;;;;;5051509;28;20575;-58
2023/04/29 14:08:58;;;;;;;20.75;15.75;;;;;;;;;;5051551;28;20013;-60
2023/04/29 14:11:25;;;;;;;19.25;14.68;;;;;;;;;;5034139;28;20021;-58
2023/04/29 14:13:51;;;;;;;19.55;15.02;;;;;;;;;;5052043;28;20021;-60
2023/04/29 14:16:17;;;;;;;19.70;14.88;;;;;;;;;;5051674;28;20090;-62
2023/04/29 14:18:43;;;;;;;19.40;14.77;;;;;;;;;;5052162;28;20037;-62